sensor_id;sensor_type;location;lat;lon;timestamp;P1;durP1;ratioP1;P2;durP2;ratioP2
58760;SDS011;44529;47.464;19.014;2022-07-10T00:00:10;1.87;;;0.90;;
58760;SDS011;44529;47.464;19.014;2022-07-10T00:03:14;0.90;;;0.90;;
58760;SDS011;44529;47.464;19.014;2022-07-10T00:06:17;1.42;;;0.88;;
58760;SDS011;44529;47.464;19.014;2022-07-10T00:09:19;1.58;;;1.08;;
58760;SDS011;44529;47.464;19.014;2022-07-10T00:12:22;0.93;;;0.77;;
58760;SDS011;44529;47.464;19.014;2022-07-10T00:15:24;1.10;;;1.10;;
58760;SDS011;44529;47.464;19.014;2022-07-10T00:18:31;0.95;;;0.95;;
58760;SDS011;44529;47.464;19.014;2022-07-10T00:21:33;2.12;;;0.95;;
58760;SDS011;44529;47.464;19.014;2022-07-10T00:24:36;1.60;;;1.15;;
58760;SDS011;44529;47.464;19.014;2022-07-10T00:27:38;1.65;;;0.80;;
58760;SDS011;44529;47.464;19.014;2022-07-10T00:30:41;1.27;;;1.10;;
58760;SDS011;44529;47.464;19.014;2022-07-10T00:33:43;2.42;;;1.05;;
58760;SDS011;44529;47.464;19.014;2022-07-10T00:36:46;0.98;;;0.90;;
58760;SDS011;44529;47.464;19.014;2022-07-10T00:39:48;1.95;;;1.10;;
58760;SDS011;44529;47.464;19.014;2022-07-10T00:42:51;1.42;;;1.33;;
58760;SDS011;44529;47.464;19.014;2022-07-10T00:45:53;1.95;;;1.02;;
58760;SDS011;44529;47.464;19.014;2022-07-10T00:48:56;1.40;;;1.10;;
58760;SDS011;44529;47.464;19.014;2022-07-10T00:52:00;0.80;;;0.80;;
58760;SDS011;44529;47.464;19.014;2022-07-10T00:55:05;5.90;;;1.20;;
58760;SDS011;44529;47.464;19.014;2022-07-10T00:58:09;1.30;;;1.20;;
58760;SDS011;44529;47.464;19.014;2022-07-10T01:01:13;1.50;;;0.90;;
58760;SDS011;44529;47.464;19.014;2022-07-10T01:04:16;0.95;;;0.90;;
58760;SDS011;44529;47.464;19.014;2022-07-10T01:07:19;2.15;;;1.27;;
58760;SDS011;44529;47.464;19.014;2022-07-10T01:10:21;1.20;;;1.10;;
58760;SDS011;44529;47.464;19.014;2022-07-10T01:13:24;2.92;;;1.10;;
58760;SDS011;44529;47.464;19.014;2022-07-10T01:16:26;2.67;;;1.27;;
58760;SDS011;44529;47.464;19.014;2022-07-10T01:19:29;1.30;;;1.20;;
58760;SDS011;44529;47.464;19.014;2022-07-10T01:22:31;0.88;;;0.80;;
58760;SDS011;44529;47.464;19.014;2022-07-10T01:25:34;1.10;;;0.88;;
58760;SDS011;44529;47.464;19.014;2022-07-10T01:28:36;1.08;;;0.98;;
58760;SDS011;44529;47.464;19.014;2022-07-10T01:31:38;1.40;;;0.80;;
58760;SDS011;44529;47.464;19.014;2022-07-10T01:34:41;2.03;;;1.05;;
58760;SDS011;44529;47.464;19.014;2022-07-10T01:37:44;1.98;;;1.02;;
58760;SDS011;44529;47.464;19.014;2022-07-10T01:40:46;0.80;;;0.80;;
58760;SDS011;44529;47.464;19.014;2022-07-10T01:43:50;2.35;;;1.02;;
58760;SDS011;44529;47.464;19.014;2022-07-10T01:46:53;1.23;;;1.12;;
58760;SDS011;44529;47.464;19.014;2022-07-10T01:49:55;1.37;;;1.23;;
58760;SDS011;44529;47.464;19.014;2022-07-10T01:52:58;1.15;;;1.02;;
58760;SDS011;44529;47.464;19.014;2022-07-10T01:56:01;1.20;;;1.10;;
58760;SDS011;44529;47.464;19.014;2022-07-10T01:59:06;1.05;;;0.90;;
58760;SDS011;44529;47.464;19.014;2022-07-10T02:02:09;1.30;;;1.20;;
58760;SDS011;44529;47.464;19.014;2022-07-10T02:05:12;0.90;;;0.90;;
58760;SDS011;44529;47.464;19.014;2022-07-10T02:08:14;1.15;;;1.05;;
58760;SDS011;44529;47.464;19.014;2022-07-10T02:11:16;1.52;;;1.42;;
58760;SDS011;44529;47.464;19.014;2022-07-10T02:14:18;1.23;;;1.10;;
58760;SDS011;44529;47.464;19.014;2022-07-10T02:17:21;1.40;;;1.30;;
58760;SDS011;44529;47.464;19.014;2022-07-10T02:20:23;1.55;;;1.30;;
58760;SDS011;44529;47.464;19.014;2022-07-10T02:23:25;0.93;;;0.80;;
58760;SDS011;44529;47.464;19.014;2022-07-10T02:26:27;2.00;;;1.15;;
58760;SDS011;44529;47.464;19.014;2022-07-10T02:29:30;1.52;;;1.30;;
58760;SDS011;44529;47.464;19.014;2022-07-10T02:32:32;1.35;;;1.15;;
58760;SDS011;44529;47.464;19.014;2022-07-10T02:35:34;1.10;;;1.10;;
58760;SDS011;44529;47.464;19.014;2022-07-10T02:38:36;1.45;;;1.35;;
58760;SDS011;44529;47.464;19.014;2022-07-10T02:41:39;3.05;;;1.10;;
58760;SDS011;44529;47.464;19.014;2022-07-10T02:44:42;1.55;;;1.30;;
58760;SDS011;44529;47.464;19.014;2022-07-10T02:47:45;0.88;;;0.88;;
58760;SDS011;44529;47.464;19.014;2022-07-10T02:50:48;1.90;;;1.23;;
58760;SDS011;44529;47.464;19.014;2022-07-10T02:53:50;1.30;;;1.20;;
58760;SDS011;44529;47.464;19.014;2022-07-10T02:56:52;1.55;;;1.45;;
58760;SDS011;44529;47.464;19.014;2022-07-10T02:59:54;1.48;;;1.02;;
58760;SDS011;44529;47.464;19.014;2022-07-10T03:02:57;1.33;;;1.23;;
58760;SDS011;44529;47.464;19.014;2022-07-10T03:05:59;1.40;;;1.30;;
58760;SDS011;44529;47.464;19.014;2022-07-10T03:09:01;1.37;;;1.27;;
58760;SDS011;44529;47.464;19.014;2022-07-10T03:12:04;1.30;;;1.20;;
58760;SDS011;44529;47.464;19.014;2022-07-10T03:15:07;1.58;;;1.48;;
58760;SDS011;44529;47.464;19.014;2022-07-10T03:18:10;3.08;;;1.35;;
58760;SDS011;44529;47.464;19.014;2022-07-10T03:21:13;1.67;;;1.58;;
58760;SDS011;44529;47.464;19.014;2022-07-10T03:24:16;1.70;;;1.60;;
58760;SDS011;44529;47.464;19.014;2022-07-10T03:27:18;1.58;;;1.48;;
58760;SDS011;44529;47.464;19.014;2022-07-10T03:30:20;1.73;;;1.60;;
58760;SDS011;44529;47.464;19.014;2022-07-10T03:33:22;1.70;;;1.60;;
58760;SDS011;44529;47.464;19.014;2022-07-10T03:36:25;2.50;;;2.00;;
58760;SDS011;44529;47.464;19.014;2022-07-10T03:39:27;2.92;;;1.67;;
58760;SDS011;44529;47.464;19.014;2022-07-10T03:42:29;3.90;;;2.10;;
58760;SDS011;44529;47.464;19.014;2022-07-10T03:45:31;4.12;;;1.40;;
58760;SDS011;44529;47.464;19.014;2022-07-10T03:48:34;1.70;;;1.60;;
58760;SDS011;44529;47.464;19.014;2022-07-10T03:51:36;1.58;;;1.48;;
58760;SDS011;44529;47.464;19.014;2022-07-10T03:54:39;1.55;;;1.45;;
58760;SDS011;44529;47.464;19.014;2022-07-10T03:57:41;2.00;;;1.80;;
58760;SDS011;44529;47.464;19.014;2022-07-10T04:00:56;2.60;;;2.00;;
58760;SDS011;44529;47.464;19.014;2022-07-10T04:03:58;2.30;;;1.55;;
58760;SDS011;44529;47.464;19.014;2022-07-10T04:07:00;3.92;;;1.80;;
58760;SDS011;44529;47.464;19.014;2022-07-10T04:10:03;1.85;;;1.75;;
58760;SDS011;44529;47.464;19.014;2022-07-10T04:13:07;6.22;;;1.58;;
58760;SDS011;44529;47.464;19.014;2022-07-10T04:16:09;2.92;;;1.58;;
58760;SDS011;44529;47.464;19.014;2022-07-10T04:19:14;1.50;;;1.40;;
58760;SDS011;44529;47.464;19.014;2022-07-10T04:22:17;2.33;;;1.67;;
58760;SDS011;44529;47.464;19.014;2022-07-10T04:25:19;2.05;;;1.40;;
58760;SDS011;44529;47.464;19.014;2022-07-10T04:28:22;1.20;;;1.20;;
58760;SDS011;44529;47.464;19.014;2022-07-10T04:31:24;1.62;;;1.52;;
58760;SDS011;44529;47.464;19.014;2022-07-10T04:34:26;2.05;;;1.73;;
58760;SDS011;44529;47.464;19.014;2022-07-10T04:37:29;2.10;;;1.90;;
58760;SDS011;44529;47.464;19.014;2022-07-10T04:40:31;1.75;;;1.65;;
58760;SDS011;44529;47.464;19.014;2022-07-10T04:43:33;2.15;;;1.60;;
58760;SDS011;44529;47.464;19.014;2022-07-10T04:46:36;3.05;;;1.77;;
58760;SDS011;44529;47.464;19.014;2022-07-10T04:49:38;1.70;;;1.60;;
58760;SDS011;44529;47.464;19.014;2022-07-10T04:52:40;2.70;;;1.80;;
58760;SDS011;44529;47.464;19.014;2022-07-10T04:55:42;2.45;;;2.00;;
58760;SDS011;44529;47.464;19.014;2022-07-10T04:58:45;1.70;;;1.60;;
58760;SDS011;44529;47.464;19.014;2022-07-10T05:01:53;2.37;;;1.62;;
58760;SDS011;44529;47.464;19.014;2022-07-10T05:04:56;1.80;;;1.70;;
58760;SDS011;44529;47.464;19.014;2022-07-10T05:07:58;1.80;;;1.70;;
58760;SDS011;44529;47.464;19.014;2022-07-10T05:11:01;3.28;;;2.03;;
58760;SDS011;44529;47.464;19.014;2022-07-10T05:14:03;1.70;;;1.60;;
58760;SDS011;44529;47.464;19.014;2022-07-10T05:17:05;1.77;;;1.60;;
58760;SDS011;44529;47.464;19.014;2022-07-10T05:20:07;1.60;;;1.50;;
58760;SDS011;44529;47.464;19.014;2022-07-10T05:23:10;1.77;;;1.50;;
58760;SDS011;44529;47.464;19.014;2022-07-10T05:26:13;2.17;;;1.50;;
58760;SDS011;44529;47.464;19.014;2022-07-10T05:29:16;1.65;;;1.55;;
58760;SDS011;44529;47.464;19.014;2022-07-10T05:32:18;1.73;;;1.55;;
58760;SDS011;44529;47.464;19.014;2022-07-10T05:35:20;2.03;;;1.77;;
58760;SDS011;44529;47.464;19.014;2022-07-10T05:38:22;2.00;;;1.80;;
58760;SDS011;44529;47.464;19.014;2022-07-10T05:41:25;6.20;;;2.00;;
58760;SDS011;44529;47.464;19.014;2022-07-10T05:44:27;4.93;;;1.83;;
58760;SDS011;44529;47.464;19.014;2022-07-10T05:47:29;2.80;;;2.10;;
58760;SDS011;44529;47.464;19.014;2022-07-10T05:50:31;3.90;;;2.20;;
58760;SDS011;44529;47.464;19.014;2022-07-10T05:53:34;2.15;;;2.05;;
58760;SDS011;44529;47.464;19.014;2022-07-10T05:56:36;2.53;;;2.33;;
58760;SDS011;44529;47.464;19.014;2022-07-10T05:59:39;2.45;;;2.20;;
58760;SDS011;44529;47.464;19.014;2022-07-10T06:02:41;2.55;;;2.35;;
58760;SDS011;44529;47.464;19.014;2022-07-10T06:05:44;3.85;;;2.65;;
58760;SDS011;44529;47.464;19.014;2022-07-10T06:08:46;2.70;;;2.50;;
58760;SDS011;44529;47.464;19.014;2022-07-10T06:11:48;2.65;;;2.10;;
58760;SDS011;44529;47.464;19.014;2022-07-10T06:14:51;3.53;;;3.00;;
58760;SDS011;44529;47.464;19.014;2022-07-10T06:17:56;3.47;;;2.75;;
58760;SDS011;44529;47.464;19.014;2022-07-10T06:20:59;2.87;;;2.58;;
58760;SDS011;44529;47.464;19.014;2022-07-10T06:24:04;2.72;;;2.53;;
58760;SDS011;44529;47.464;19.014;2022-07-10T06:27:07;2.92;;;2.67;;
58760;SDS011;44529;47.464;19.014;2022-07-10T06:30:09;3.47;;;2.42;;
58760;SDS011;44529;47.464;19.014;2022-07-10T06:33:12;2.72;;;2.53;;
58760;SDS011;44529;47.464;19.014;2022-07-10T06:36:14;3.47;;;2.28;;
58760;SDS011;44529;47.464;19.014;2022-07-10T06:39:20;2.70;;;2.40;;
58760;SDS011;44529;47.464;19.014;2022-07-10T06:42:22;2.67;;;2.47;;
58760;SDS011;44529;47.464;19.014;2022-07-10T06:45:25;2.53;;;2.33;;
58760;SDS011;44529;47.464;19.014;2022-07-10T06:48:27;2.62;;;2.42;;
58760;SDS011;44529;47.464;19.014;2022-07-10T06:51:30;3.10;;;2.30;;
58760;SDS011;44529;47.464;19.014;2022-07-10T06:54:39;2.20;;;2.10;;
58760;SDS011;44529;47.464;19.014;2022-07-10T06:57:42;2.05;;;1.83;;
58760;SDS011;44529;47.464;19.014;2022-07-10T07:00:45;1.70;;;1.60;;
58760;SDS011;44529;47.464;19.014;2022-07-10T07:03:47;2.05;;;1.90;;
58760;SDS011;44529;47.464;19.014;2022-07-10T07:06:49;1.50;;;1.40;;
58760;SDS011;44529;47.464;19.014;2022-07-10T07:09:52;1.67;;;1.58;;
58760;SDS011;44529;47.464;19.014;2022-07-10T07:12:54;1.33;;;1.30;;
58760;SDS011;44529;47.464;19.014;2022-07-10T07:15:56;1.37;;;1.27;;
58760;SDS011;44529;47.464;19.014;2022-07-10T07:19:02;1.77;;;1.67;;
58760;SDS011;44529;47.464;19.014;2022-07-10T07:22:06;5.10;;;1.45;;
58760;SDS011;44529;47.464;19.014;2022-07-10T07:25:30;1.45;;;1.35;;
58760;SDS011;44529;47.464;19.014;2022-07-10T07:28:32;1.80;;;1.55;;
58760;SDS011;44529;47.464;19.014;2022-07-10T07:31:35;1.48;;;1.20;;
58760;SDS011;44529;47.464;19.014;2022-07-10T07:34:37;1.35;;;1.33;;
58760;SDS011;44529;47.464;19.014;2022-07-10T07:37:40;1.40;;;1.30;;
58760;SDS011;44529;47.464;19.014;2022-07-10T07:40:46;1.30;;;1.30;;
58760;SDS011;44529;47.464;19.014;2022-07-10T07:43:48;2.85;;;1.77;;
58760;SDS011;44529;47.464;19.014;2022-07-10T07:46:51;2.03;;;1.10;;
58760;SDS011;44529;47.464;19.014;2022-07-10T07:49:53;1.80;;;1.30;;
58760;SDS011;44529;47.464;19.014;2022-07-10T07:52:55;1.37;;;1.27;;
58760;SDS011;44529;47.464;19.014;2022-07-10T07:55:58;3.72;;;1.25;;
58760;SDS011;44529;47.464;19.014;2022-07-10T07:59:00;3.50;;;1.33;;
58760;SDS011;44529;47.464;19.014;2022-07-10T08:02:03;1.35;;;1.20;;
58760;SDS011;44529;47.464;19.014;2022-07-10T08:05:06;1.85;;;1.20;;
58760;SDS011;44529;47.464;19.014;2022-07-10T08:08:09;3.30;;;1.58;;
58760;SDS011;44529;47.464;19.014;2022-07-10T08:11:12;1.20;;;1.10;;
58760;SDS011;44529;47.464;19.014;2022-07-10T08:14:14;2.70;;;1.33;;
58760;SDS011;44529;47.464;19.014;2022-07-10T08:17:16;2.40;;;1.12;;
58760;SDS011;44529;47.464;19.014;2022-07-10T08:20:18;1.45;;;1.35;;
58760;SDS011;44529;47.464;19.014;2022-07-10T08:23:21;1.62;;;1.52;;
58760;SDS011;44529;47.464;19.014;2022-07-10T08:26:30;2.40;;;1.02;;
58760;SDS011;44529;47.464;19.014;2022-07-10T08:29:32;1.92;;;1.27;;
58760;SDS011;44529;47.464;19.014;2022-07-10T08:32:35;1.73;;;1.30;;
58760;SDS011;44529;47.464;19.014;2022-07-10T08:35:39;1.23;;;1.10;;
58760;SDS011;44529;47.464;19.014;2022-07-10T08:38:42;1.42;;;1.30;;
58760;SDS011;44529;47.464;19.014;2022-07-10T08:41:44;1.33;;;1.23;;
58760;SDS011;44529;47.464;19.014;2022-07-10T08:44:48;1.30;;;1.20;;
58760;SDS011;44529;47.464;19.014;2022-07-10T08:47:51;4.32;;;1.50;;
58760;SDS011;44529;47.464;19.014;2022-07-10T08:50:53;1.73;;;1.55;;
58760;SDS011;44529;47.464;19.014;2022-07-10T08:54:00;1.02;;;1.00;;
58760;SDS011;44529;47.464;19.014;2022-07-10T08:57:03;2.28;;;1.35;;
58760;SDS011;44529;47.464;19.014;2022-07-10T09:00:06;1.50;;;1.40;;
58760;SDS011;44529;47.464;19.014;2022-07-10T09:03:08;1.67;;;1.10;;
58760;SDS011;44529;47.464;19.014;2022-07-10T09:06:11;3.95;;;1.33;;
58760;SDS011;44529;47.464;19.014;2022-07-10T09:09:13;2.22;;;1.45;;
58760;SDS011;44529;47.464;19.014;2022-07-10T09:12:16;3.22;;;1.50;;
58760;SDS011;44529;47.464;19.014;2022-07-10T09:15:18;1.35;;;1.20;;
58760;SDS011;44529;47.464;19.014;2022-07-10T09:18:24;1.58;;;1.33;;
58760;SDS011;44529;47.464;19.014;2022-07-10T09:21:27;1.45;;;1.20;;
58760;SDS011;44529;47.464;19.014;2022-07-10T09:24:37;1.70;;;1.30;;
58760;SDS011;44529;47.464;19.014;2022-07-10T09:27:50;1.05;;;1.00;;
58760;SDS011;44529;47.464;19.014;2022-07-10T09:30:54;2.08;;;1.10;;
58760;SDS011;44529;47.464;19.014;2022-07-10T09:33:56;2.40;;;1.20;;
58760;SDS011;44529;47.464;19.014;2022-07-10T09:36:59;0.95;;;0.95;;
58760;SDS011;44529;47.464;19.014;2022-07-10T09:40:04;1.30;;;1.10;;
58760;SDS011;44529;47.464;19.014;2022-07-10T09:43:08;1.25;;;1.17;;
58760;SDS011;44529;47.464;19.014;2022-07-10T09:46:10;1.98;;;1.25;;
58760;SDS011;44529;47.464;19.014;2022-07-10T09:49:13;1.25;;;1.00;;
58760;SDS011;44529;47.464;19.014;2022-07-10T09:52:16;1.20;;;1.00;;
58760;SDS011;44529;47.464;19.014;2022-07-10T09:55:21;1.80;;;1.10;;
58760;SDS011;44529;47.464;19.014;2022-07-10T09:58:25;1.17;;;1.08;;
58760;SDS011;44529;47.464;19.014;2022-07-10T10:01:32;1.23;;;1.00;;
58760;SDS011;44529;47.464;19.014;2022-07-10T10:04:37;1.20;;;1.10;;
58760;SDS011;44529;47.464;19.014;2022-07-10T10:07:41;2.37;;;0.90;;
58760;SDS011;44529;47.464;19.014;2022-07-10T10:10:47;0.98;;;0.98;;
58760;SDS011;44529;47.464;19.014;2022-07-10T10:13:51;3.78;;;1.17;;
58760;SDS011;44529;47.464;19.014;2022-07-10T10:16:55;2.25;;;1.00;;
58760;SDS011;44529;47.464;19.014;2022-07-10T10:19:58;1.98;;;0.90;;
58760;SDS011;44529;47.464;19.014;2022-07-10T10:23:23;2.97;;;0.77;;
58760;SDS011;44529;47.464;19.014;2022-07-10T10:26:27;2.10;;;1.20;;
58760;SDS011;44529;47.464;19.014;2022-07-10T10:29:29;0.90;;;0.90;;
58760;SDS011;44529;47.464;19.014;2022-07-10T10:32:32;1.45;;;1.00;;
58760;SDS011;44529;47.464;19.014;2022-07-10T10:35:44;1.55;;;0.75;;
58760;SDS011;44529;47.464;19.014;2022-07-10T10:41:58;2.72;;;0.90;;
58760;SDS011;44529;47.464;19.014;2022-07-10T10:48:31;1.95;;;0.80;;
58760;SDS011;44529;47.464;19.014;2022-07-10T10:51:58;2.40;;;1.10;;
58760;SDS011;44529;47.464;19.014;2022-07-10T10:55:02;1.27;;;0.85;;
58760;SDS011;44529;47.464;19.014;2022-07-10T10:58:16;2.55;;;0.93;;
58760;SDS011;44529;47.464;19.014;2022-07-10T11:04:22;3.28;;;1.20;;
58760;SDS011;44529;47.464;19.014;2022-07-10T11:14:34;2.28;;;0.90;;
58760;SDS011;44529;47.464;19.014;2022-07-10T11:17:38;5.50;;;1.00;;
58760;SDS011;44529;47.464;19.014;2022-07-10T11:20:46;2.35;;;0.82;;
58760;SDS011;44529;47.464;19.014;2022-07-10T11:24:06;0.60;;;0.60;;
58760;SDS011;44529;47.464;19.014;2022-07-10T11:30:50;0.85;;;0.70;;
58760;SDS011;44529;47.464;19.014;2022-07-10T11:33:55;2.03;;;1.10;;
58760;SDS011;44529;47.464;19.014;2022-07-10T11:36:58;1.10;;;0.95;;
58760;SDS011;44529;47.464;19.014;2022-07-10T11:40:10;6.15;;;1.35;;
58760;SDS011;44529;47.464;19.014;2022-07-10T11:43:14;1.45;;;0.68;;
58760;SDS011;44529;47.464;19.014;2022-07-10T11:46:19;2.35;;;1.27;;
58760;SDS011;44529;47.464;19.014;2022-07-10T11:49:23;4.55;;;1.00;;
58760;SDS011;44529;47.464;19.014;2022-07-10T11:52:26;2.28;;;0.75;;
58760;SDS011;44529;47.464;19.014;2022-07-10T11:55:28;1.65;;;1.30;;
58760;SDS011;44529;47.464;19.014;2022-07-10T11:58:35;0.75;;;0.75;;
58760;SDS011;44529;47.464;19.014;2022-07-10T12:01:41;2.35;;;1.00;;
58760;SDS011;44529;47.464;19.014;2022-07-10T12:04:48;2.37;;;0.88;;
58760;SDS011;44529;47.464;19.014;2022-07-10T12:07:50;1.17;;;0.90;;
58760;SDS011;44529;47.464;19.014;2022-07-10T12:10:53;4.57;;;0.70;;
58760;SDS011;44529;47.464;19.014;2022-07-10T12:14:08;1.15;;;0.93;;
58760;SDS011;44529;47.464;19.014;2022-07-10T12:17:19;3.72;;;0.75;;
58760;SDS011;44529;47.464;19.014;2022-07-10T12:20:21;1.67;;;0.90;;
58760;SDS011;44529;47.464;19.014;2022-07-10T12:23:23;1.83;;;0.70;;
58760;SDS011;44529;47.464;19.014;2022-07-10T12:26:35;5.28;;;0.60;;
58760;SDS011;44529;47.464;19.014;2022-07-10T12:29:40;2.62;;;0.47;;
58760;SDS011;44529;47.464;19.014;2022-07-10T12:32:42;2.20;;;0.88;;
58760;SDS011;44529;47.464;19.014;2022-07-10T12:35:47;5.62;;;0.80;;
58760;SDS011;44529;47.464;19.014;2022-07-10T12:39:00;4.07;;;0.93;;
58760;SDS011;44529;47.464;19.014;2022-07-10T12:42:03;2.55;;;0.85;;
58760;SDS011;44529;47.464;19.014;2022-07-10T12:45:13;1.85;;;0.73;;
58760;SDS011;44529;47.464;19.014;2022-07-10T12:48:22;7.00;;;0.97;;
58760;SDS011;44529;47.464;19.014;2022-07-10T12:51:26;4.72;;;0.98;;
58760;SDS011;44529;47.464;19.014;2022-07-10T12:58:23;2.30;;;0.90;;
58760;SDS011;44529;47.464;19.014;2022-07-10T13:01:27;3.08;;;0.77;;
58760;SDS011;44529;47.464;19.014;2022-07-10T13:04:31;7.28;;;1.60;;
58760;SDS011;44529;47.464;19.014;2022-07-10T13:07:35;0.90;;;0.70;;
58760;SDS011;44529;47.464;19.014;2022-07-10T13:10:39;17.67;;;2.55;;
58760;SDS011;44529;47.464;19.014;2022-07-10T13:13:43;7.50;;;1.08;;
58760;SDS011;44529;47.464;19.014;2022-07-10T13:16:45;0.57;;;0.57;;
58760;SDS011;44529;47.464;19.014;2022-07-10T13:19:48;2.97;;;0.95;;
58760;SDS011;44529;47.464;19.014;2022-07-10T13:22:50;3.83;;;1.10;;
58760;SDS011;44529;47.464;19.014;2022-07-10T13:25:52;2.45;;;1.23;;
58760;SDS011;44529;47.464;19.014;2022-07-10T13:28:55;2.22;;;0.98;;
58760;SDS011;44529;47.464;19.014;2022-07-10T13:31:57;1.77;;;0.77;;
58760;SDS011;44529;47.464;19.014;2022-07-10T13:35:00;1.83;;;0.93;;
58760;SDS011;44529;47.464;19.014;2022-07-10T13:38:02;2.45;;;0.98;;
58760;SDS011;44529;47.464;19.014;2022-07-10T13:41:05;0.93;;;0.60;;
58760;SDS011;44529;47.464;19.014;2022-07-10T13:44:07;1.50;;;1.15;;
58760;SDS011;44529;47.464;19.014;2022-07-10T13:47:16;1.73;;;1.08;;
58760;SDS011;44529;47.464;19.014;2022-07-10T13:50:19;3.22;;;0.98;;
58760;SDS011;44529;47.464;19.014;2022-07-10T13:53:22;4.32;;;1.10;;
58760;SDS011;44529;47.464;19.014;2022-07-10T13:56:24;4.75;;;1.98;;
58760;SDS011;44529;47.464;19.014;2022-07-10T13:59:27;4.45;;;1.20;;
58760;SDS011;44529;47.464;19.014;2022-07-10T14:02:29;1.67;;;0.93;;
58760;SDS011;44529;47.464;19.014;2022-07-10T14:05:32;1.95;;;0.82;;
58760;SDS011;44529;47.464;19.014;2022-07-10T14:08:37;3.78;;;1.23;;
58760;SDS011;44529;47.464;19.014;2022-07-10T14:11:39;3.10;;;1.15;;
58760;SDS011;44529;47.464;19.014;2022-07-10T14:14:42;5.55;;;1.50;;
58760;SDS011;44529;47.464;19.014;2022-07-10T14:17:45;2.53;;;0.93;;
58760;SDS011;44529;47.464;19.014;2022-07-10T14:20:47;6.43;;;1.15;;
58760;SDS011;44529;47.464;19.014;2022-07-10T14:24:05;3.28;;;1.40;;
58760;SDS011;44529;47.464;19.014;2022-07-10T14:27:08;6.05;;;1.27;;
58760;SDS011;44529;47.464;19.014;2022-07-10T14:30:10;1.58;;;0.90;;
58760;SDS011;44529;47.464;19.014;2022-07-10T14:33:13;1.95;;;0.93;;
58760;SDS011;44529;47.464;19.014;2022-07-10T14:36:15;1.12;;;0.95;;
58760;SDS011;44529;47.464;19.014;2022-07-10T14:39:17;1.55;;;0.90;;
58760;SDS011;44529;47.464;19.014;2022-07-10T14:42:20;2.97;;;0.90;;
58760;SDS011;44529;47.464;19.014;2022-07-10T14:45:22;3.17;;;0.90;;
58760;SDS011;44529;47.464;19.014;2022-07-10T14:48:46;4.45;;;0.93;;
58760;SDS011;44529;47.464;19.014;2022-07-10T14:51:48;2.75;;;1.20;;
58760;SDS011;44529;47.464;19.014;2022-07-10T14:54:50;1.10;;;0.68;;
58760;SDS011;44529;47.464;19.014;2022-07-10T14:57:52;1.85;;;0.70;;
58760;SDS011;44529;47.464;19.014;2022-07-10T15:00:55;3.50;;;1.35;;
58760;SDS011;44529;47.464;19.014;2022-07-10T15:03:57;1.52;;;0.55;;
58760;SDS011;44529;47.464;19.014;2022-07-10T15:07:00;1.70;;;0.70;;
58760;SDS011;44529;47.464;19.014;2022-07-10T15:10:02;4.25;;;0.90;;
58760;SDS011;44529;47.464;19.014;2022-07-10T15:13:05;3.08;;;0.90;;
58760;SDS011;44529;47.464;19.014;2022-07-10T15:16:08;5.55;;;0.88;;
58760;SDS011;44529;47.464;19.014;2022-07-10T15:19:10;2.35;;;0.75;;
58760;SDS011;44529;47.464;19.014;2022-07-10T15:22:13;1.45;;;0.60;;
58760;SDS011;44529;47.464;19.014;2022-07-10T15:25:16;3.47;;;0.70;;
58760;SDS011;44529;47.464;19.014;2022-07-10T15:28:18;2.22;;;1.10;;
58760;SDS011;44529;47.464;19.014;2022-07-10T15:31:20;4.22;;;0.77;;
58760;SDS011;44529;47.464;19.014;2022-07-10T15:34:23;1.10;;;0.73;;
58760;SDS011;44529;47.464;19.014;2022-07-10T15:37:25;3.17;;;0.90;;
58760;SDS011;44529;47.464;19.014;2022-07-10T15:40:30;3.67;;;0.90;;
58760;SDS011;44529;47.464;19.014;2022-07-10T15:43:33;5.07;;;0.70;;
58760;SDS011;44529;47.464;19.014;2022-07-10T15:46:35;1.90;;;0.55;;
58760;SDS011;44529;47.464;19.014;2022-07-10T15:49:38;1.27;;;0.70;;
58760;SDS011;44529;47.464;19.014;2022-07-10T15:52:40;1.75;;;0.60;;
58760;SDS011;44529;47.464;19.014;2022-07-10T15:55:43;3.20;;;1.05;;
58760;SDS011;44529;47.464;19.014;2022-07-10T15:58:45;2.90;;;0.95;;
58760;SDS011;44529;47.464;19.014;2022-07-10T16:01:48;2.58;;;0.80;;
58760;SDS011;44529;47.464;19.014;2022-07-10T16:04:54;3.15;;;0.80;;
58760;SDS011;44529;47.464;19.014;2022-07-10T16:07:56;0.77;;;0.52;;
58760;SDS011;44529;47.464;19.014;2022-07-10T16:10:58;6.15;;;0.73;;
58760;SDS011;44529;47.464;19.014;2022-07-10T16:14:00;4.62;;;0.70;;
58760;SDS011;44529;47.464;19.014;2022-07-10T16:17:03;2.85;;;0.50;;
58760;SDS011;44529;47.464;19.014;2022-07-10T16:20:05;3.42;;;0.70;;
58760;SDS011;44529;47.464;19.014;2022-07-10T16:23:10;2.50;;;1.02;;
58760;SDS011;44529;47.464;19.014;2022-07-10T16:26:12;3.20;;;0.73;;
58760;SDS011;44529;47.464;19.014;2022-07-10T16:29:15;4.57;;;0.93;;
58760;SDS011;44529;47.464;19.014;2022-07-10T16:32:17;1.73;;;0.95;;
58760;SDS011;44529;47.464;19.014;2022-07-10T16:35:21;1.10;;;1.00;;
58760;SDS011;44529;47.464;19.014;2022-07-10T16:38:24;3.62;;;1.17;;
58760;SDS011;44529;47.464;19.014;2022-07-10T16:41:27;5.22;;;1.40;;
58760;SDS011;44529;47.464;19.014;2022-07-10T16:44:29;6.10;;;1.33;;
58760;SDS011;44529;47.464;19.014;2022-07-10T16:47:32;1.80;;;0.80;;
58760;SDS011;44529;47.464;19.014;2022-07-10T16:50:35;1.50;;;0.82;;
58760;SDS011;44529;47.464;19.014;2022-07-10T16:53:38;1.87;;;1.10;;
58760;SDS011;44529;47.464;19.014;2022-07-10T16:57:01;5.00;;;1.02;;
58760;SDS011;44529;47.464;19.014;2022-07-10T17:00:04;3.15;;;0.80;;
58760;SDS011;44529;47.464;19.014;2022-07-10T17:03:08;2.83;;;1.10;;
58760;SDS011;44529;47.464;19.014;2022-07-10T17:06:17;2.78;;;0.60;;
58760;SDS011;44529;47.464;19.014;2022-07-10T17:09:19;1.45;;;0.85;;
58760;SDS011;44529;47.464;19.014;2022-07-10T17:12:21;4.05;;;0.98;;
58760;SDS011;44529;47.464;19.014;2022-07-10T17:15:24;2.00;;;0.93;;
58760;SDS011;44529;47.464;19.014;2022-07-10T17:18:27;3.80;;;0.62;;
58760;SDS011;44529;47.464;19.014;2022-07-10T17:21:30;1.67;;;0.60;;
58760;SDS011;44529;47.464;19.014;2022-07-10T17:24:52;2.97;;;0.70;;
58760;SDS011;44529;47.464;19.014;2022-07-10T17:27:55;1.12;;;0.50;;
58760;SDS011;44529;47.464;19.014;2022-07-10T17:30:58;3.55;;;0.70;;
58760;SDS011;44529;47.464;19.014;2022-07-10T17:34:00;1.23;;;0.60;;
58760;SDS011;44529;47.464;19.014;2022-07-10T17:37:03;0.50;;;0.50;;
58760;SDS011;44529;47.464;19.014;2022-07-10T17:40:06;6.05;;;0.80;;
58760;SDS011;44529;47.464;19.014;2022-07-10T17:43:09;1.48;;;0.45;;
58760;SDS011;44529;47.464;19.014;2022-07-10T17:46:11;2.33;;;0.70;;
58760;SDS011;44529;47.464;19.014;2022-07-10T17:49:13;1.27;;;0.60;;
58760;SDS011;44529;47.464;19.014;2022-07-10T17:52:15;2.10;;;0.52;;
58760;SDS011;44529;47.464;19.014;2022-07-10T17:55:18;3.10;;;0.60;;
58760;SDS011;44529;47.464;19.014;2022-07-10T17:58:20;1.80;;;0.65;;
58760;SDS011;44529;47.464;19.014;2022-07-10T18:01:22;8.13;;;0.90;;
58760;SDS011;44529;47.464;19.014;2022-07-10T18:04:25;2.08;;;0.60;;
58760;SDS011;44529;47.464;19.014;2022-07-10T18:07:27;2.33;;;1.80;;
58760;SDS011;44529;47.464;19.014;2022-07-10T18:10:32;3.78;;;1.10;;
58760;SDS011;44529;47.464;19.014;2022-07-10T18:13:35;1.20;;;0.50;;
58760;SDS011;44529;47.464;19.014;2022-07-10T18:16:37;1.65;;;0.30;;
58760;SDS011;44529;47.464;19.014;2022-07-10T18:19:40;2.42;;;0.90;;
58760;SDS011;44529;47.464;19.014;2022-07-10T18:22:42;1.17;;;0.52;;
58760;SDS011;44529;47.464;19.014;2022-07-10T18:25:44;4.40;;;0.82;;
58760;SDS011;44529;47.464;19.014;2022-07-10T18:28:47;0.68;;;0.30;;
58760;SDS011;44529;47.464;19.014;2022-07-10T18:31:49;2.53;;;0.50;;